createdAt,value
2023-05-22T00:04:30.247Z,12.50
2023-05-22T00:09:32.729Z,12.50
2023-05-22T00:14:34.874Z,12.40
2023-05-22T00:19:37.123Z,12.40
2023-05-22T00:24:39.341Z,12.30
2023-05-22T00:29:41.534Z,12.20
2023-05-22T00:34:43.902Z,12.20
2023-05-22T00:39:46.817Z,12.20
2023-05-22T00:44:49.954Z,12.20
2023-05-22T00:49:52.970Z,12.10
2023-05-22T00:54:55.228Z,12.10
2023-05-22T00:59:57.584Z,12.00
2023-05-22T01:04:59.810Z,12.10
2023-05-22T01:10:02.011Z,12.10
2023-05-22T01:15:18.329Z,12.10
2023-05-22T01:20:38.172Z,12.10
2023-05-22T01:25:53.819Z,12.00
2023-05-22T01:31:19.251Z,11.90
2023-05-22T01:36:22.882Z,11.80
2023-05-22T01:41:25.932Z,11.80
2023-05-22T01:46:30.283Z,11.70
2023-05-22T01:51:43.406Z,11.60
2023-05-22T01:56:51.285Z,11.50
2023-05-22T02:01:55.837Z,11.50
2023-05-22T02:07:19.849Z,11.50
2023-05-22T02:12:24.005Z,11.40
2023-05-22T02:17:26.397Z,11.30
2023-05-22T02:22:28.649Z,11.20
2023-05-22T02:27:32.580Z,11.20
2023-05-22T02:32:36.162Z,11.20
2023-05-22T02:37:39.003Z,11.20
2023-05-22T02:42:41.916Z,11.30
2023-05-22T02:47:44.364Z,11.30
2023-05-22T02:52:47.741Z,11.40
2023-05-22T02:57:49.938Z,11.30
2023-05-22T03:02:52.251Z,11.30
2023-05-22T03:07:54.573Z,11.10
2023-05-22T03:12:56.818Z,10.90
2023-05-22T03:17:59.771Z,10.80
2023-05-22T03:23:02.522Z,10.70
2023-05-22T03:28:04.952Z,10.80
2023-05-22T03:33:11.803Z,10.60
2023-05-22T03:38:15.094Z,10.70
2023-05-22T03:43:17.790Z,10.70
2023-05-22T03:48:21.237Z,10.70
2023-05-22T03:53:23.554Z,10.60
2023-05-22T03:58:26.007Z,10.40
2023-05-22T04:03:28.722Z,10.30
2023-05-22T04:08:31.010Z,10.40
2023-05-22T04:13:35.522Z,10.40
2023-05-22T04:18:37.680Z,10.30
2023-05-22T04:23:43.370Z,10.20
2023-05-22T04:28:46.316Z,10.20
2023-05-22T04:33:49.930Z,10.20
2023-05-22T04:38:52.940Z,10.10
2023-05-22T04:43:55.209Z,10.10
2023-05-22T04:49:02.126Z,10.20
2023-05-22T04:54:04.842Z,10.10
2023-05-22T04:59:26.677Z,10.10
2023-05-22T05:04:28.945Z,10.10
2023-05-22T05:09:31.469Z,10.20
2023-05-22T05:14:33.627Z,10.20
2023-05-22T05:19:37.173Z,10.20
2023-05-22T05:24:40.024Z,10.20
2023-05-22T05:29:42.773Z,10.30
2023-05-22T05:34:53.616Z,10.30
2023-05-22T05:40:00.422Z,10.30
2023-05-22T05:45:02.820Z,10.40
2023-05-22T05:50:07.572Z,10.40
2023-05-22T05:55:11.198Z,10.60
2023-05-22T06:00:14.062Z,10.60
2023-05-22T06:05:19.202Z,10.70
2023-05-22T06:10:24.898Z,10.90
2023-05-22T06:15:38.157Z,11.00
2023-05-22T06:20:40.781Z,11.20
2023-05-22T06:25:43.594Z,11.30
2023-05-22T06:30:46.162Z,11.50
2023-05-22T06:35:53.222Z,11.70
2023-05-22T06:40:56.061Z,11.80
2023-05-22T06:46:01.519Z,11.90
2023-05-22T06:51:16.612Z,12.00
2023-05-22T06:56:24.840Z,12.40
2023-05-22T07:01:34.134Z,12.90
2023-05-22T07:06:43.705Z,13.10
2023-05-22T07:11:46.940Z,13.20
2023-05-22T07:16:51.472Z,13.30
2023-05-22T07:22:00.890Z,13.40
2023-05-22T07:27:04.518Z,13.50
2023-05-22T07:32:08.656Z,13.60
2023-05-22T07:37:14.260Z,13.60
2023-05-22T07:42:18.471Z,13.70
2023-05-22T07:47:27.932Z,13.80
2023-05-22T07:52:31.664Z,13.90
2023-05-22T07:57:36.255Z,14.00
2023-05-22T08:02:46.899Z,14.10
2023-05-22T08:07:49.206Z,14.20
2023-05-22T08:12:51.416Z,14.30
2023-05-22T08:17:53.631Z,14.30
2023-05-22T08:22:55.886Z,14.30
2023-05-22T08:27:58.078Z,14.30
2023-05-22T08:33:00.299Z,14.40
2023-05-22T08:38:02.448Z,14.30
2023-05-22T08:43:06.005Z,14.50
2023-05-22T08:48:10.111Z,14.70
2023-05-22T08:53:14.490Z,14.60
2023-05-22T08:58:18.217Z,14.70
2023-05-22T09:03:21.765Z,14.80
2023-05-22T09:08:24.224Z,14.90
2023-05-22T09:13:27.509Z,15.10
2023-05-22T09:18:30.306Z,15.00
2023-05-22T09:23:32.582Z,15.00
2023-05-22T09:28:36.108Z,15.30
2023-05-22T09:33:38.393Z,15.50
2023-05-22T09:38:40.652Z,15.40
2023-05-22T09:43:51.040Z,15.50
2023-05-22T09:48:53.736Z,15.60
2023-05-22T09:54:06.853Z,15.80
2023-05-22T09:59:10.180Z,15.80
2023-05-22T10:04:16.757Z,15.80
2023-05-22T10:09:23.574Z,16.00
2023-05-22T10:14:26.312Z,16.30
2023-05-22T10:19:32.816Z,16.30
2023-05-22T10:24:35.622Z,16.40
2023-05-22T10:29:45.013Z,16.50
2023-05-22T10:34:59.578Z,16.50
2023-05-22T10:40:21.730Z,16.50
2023-05-22T10:45:27.148Z,16.40
2023-05-22T10:50:29.471Z,16.90
2023-05-22T10:55:31.905Z,17.30
2023-05-22T11:00:38.215Z,17.40
2023-05-22T11:05:41.119Z,17.30
2023-05-22T11:10:57.229Z,17.40
2023-05-22T11:16:04.391Z,17.60
2023-05-22T11:21:10.549Z,17.70
2023-05-22T11:26:26.338Z,18.10
2023-05-22T11:31:30.604Z,18.30
2023-05-22T11:36:33.753Z,18.30
2023-05-22T11:41:36.710Z,18.20
2023-05-22T11:46:39.971Z,18.00
2023-05-22T11:51:42.289Z,17.80
2023-05-22T11:56:45.449Z,18.40
2023-05-22T12:01:50.078Z,18.40
2023-05-22T12:06:53.451Z,18.00
2023-05-22T12:11:59.226Z,18.20
2023-05-22T12:17:04.571Z,18.60
2023-05-22T12:22:07.003Z,18.60
2023-05-22T12:27:10.475Z,18.20
2023-05-22T12:32:13.548Z,18.30
2023-05-22T12:37:25.228Z,18.70
2023-05-22T12:42:28.479Z,18.60
2023-05-22T12:47:30.808Z,18.60
2023-05-22T12:52:33.160Z,18.30
2023-05-22T12:57:35.380Z,18.40
2023-05-22T13:02:37.672Z,18.40
2023-05-22T13:07:39.829Z,18.20
2023-05-22T13:12:43.179Z,17.90
2023-05-22T13:17:45.933Z,17.50
2023-05-22T13:22:48.297Z,18.10
2023-05-22T13:27:50.705Z,18.10
2023-05-22T13:32:53.033Z,18.40
2023-05-22T13:37:55.338Z,18.10
2023-05-22T13:42:57.883Z,18.00
2023-05-22T13:48:00.194Z,18.20
2023-05-22T13:53:02.469Z,18.30
2023-05-22T13:58:05.010Z,18.90
2023-05-22T14:03:07.285Z,19.40
2023-05-22T14:08:09.855Z,19.20
2023-05-22T14:13:12.020Z,18.90
2023-05-22T14:18:16.625Z,19.00
2023-05-22T14:23:19.120Z,18.70
2023-05-22T14:28:21.248Z,18.90
2023-05-22T14:33:23.463Z,19.10
2023-05-22T14:38:26.554Z,19.10
2023-05-22T14:43:28.788Z,19.30
2023-05-22T14:48:31.112Z,19.10
2023-05-22T14:53:33.386Z,18.60
2023-05-22T14:58:35.755Z,18.40
2023-05-22T15:03:38.243Z,18.10
2023-05-22T15:08:40.527Z,18.40
2023-05-22T15:13:42.725Z,18.90
2023-05-22T15:18:45.002Z,19.00
2023-05-22T15:23:48.097Z,19.30
2023-05-22T15:28:50.317Z,18.50
2023-05-22T15:33:52.515Z,18.10
2023-05-22T15:38:54.831Z,18.30
2023-05-22T15:43:57.138Z,18.50
2023-05-22T15:48:59.313Z,19.00
2023-05-22T15:54:01.552Z,19.20
2023-05-22T15:59:03.827Z,18.90
2023-05-22T16:04:06.341Z,19.20
2023-05-22T16:09:09.462Z,19.40
2023-05-22T16:14:12.050Z,19.40
2023-05-22T16:19:14.624Z,19.10
2023-05-22T16:24:16.868Z,19.30
2023-05-22T16:29:22.123Z,19.40
2023-05-22T16:34:24.378Z,18.80
2023-05-22T16:39:29.714Z,18.60
2023-05-22T16:44:32.058Z,18.50
2023-05-22T16:49:34.252Z,18.70
2023-05-22T16:54:39.759Z,18.80
2023-05-22T16:59:42.544Z,19.50
2023-05-22T17:04:44.784Z,19.30
2023-05-22T17:09:47.023Z,19.20
2023-05-22T17:14:49.230Z,19.10
2023-05-22T17:19:52.735Z,18.60
2023-05-22T17:24:56.087Z,18.60
2023-05-22T17:29:58.519Z,18.50
2023-05-22T17:35:01.906Z,18.60
2023-05-22T17:40:04.845Z,18.50
2023-05-22T17:45:07.803Z,18.80
2023-05-22T17:50:10.639Z,19.00
2023-05-22T17:55:13.024Z,18.70
2023-05-22T18:00:17.121Z,18.60
2023-05-22T18:05:19.756Z,18.70
2023-05-22T18:10:24.473Z,18.50
2023-05-22T18:15:26.616Z,18.40
2023-05-22T18:20:28.748Z,18.50
2023-05-22T18:25:31.017Z,18.30
2023-05-22T18:30:33.274Z,18.10
2023-05-22T18:35:35.564Z,18.10
2023-05-22T18:40:37.862Z,18.00
2023-05-22T18:45:40.175Z,17.30
2023-05-22T18:50:42.477Z,17.00
2023-05-22T18:55:45.672Z,16.80
2023-05-22T19:00:48.525Z,16.70
2023-05-22T19:05:50.811Z,16.70
2023-05-22T19:10:55.407Z,16.70
2023-05-22T19:15:57.651Z,16.60
2023-05-22T19:21:00.006Z,16.50
2023-05-22T19:26:02.631Z,16.30
2023-05-22T19:31:04.929Z,16.10
2023-05-22T19:36:07.217Z,15.90
2023-05-22T19:41:09.496Z,15.80
2023-05-22T19:46:11.800Z,15.70
2023-05-22T19:51:13.997Z,15.70
2023-05-22T19:56:16.244Z,15.60
2023-05-22T20:01:18.726Z,15.30
2023-05-22T20:06:20.987Z,15.10
2023-05-22T20:11:23.213Z,15.10
2023-05-22T20:16:28.561Z,15.10
2023-05-22T20:21:32.230Z,15.00
2023-05-22T20:26:34.434Z,14.90
2023-05-22T20:31:37.174Z,14.70
2023-05-22T20:36:39.900Z,14.80
2023-05-22T20:41:42.116Z,14.90
2023-05-22T20:46:44.383Z,14.90
2023-05-22T20:51:50.998Z,15.00
2023-05-22T20:56:54.795Z,15.10
2023-05-22T21:01:57.906Z,15.30
2023-05-22T21:07:00.171Z,15.10
2023-05-22T21:12:02.682Z,15.10
2023-05-22T21:17:04.981Z,15.10
2023-05-22T21:22:07.348Z,15.10
2023-05-22T21:27:09.480Z,15.10
2023-05-22T21:32:11.777Z,15.00
2023-05-22T21:37:14.117Z,15.00
2023-05-22T21:42:16.587Z,15.10
2023-05-22T21:47:18.713Z,15.10
2023-05-22T21:52:20.924Z,15.10
2023-05-22T21:57:23.719Z,15.00
2023-05-22T22:02:26.143Z,15.10
2023-05-22T22:07:28.408Z,15.10
2023-05-22T22:12:30.714Z,15.00
2023-05-22T22:17:34.869Z,15.00
2023-05-22T22:22:37.109Z,14.90
2023-05-22T22:27:39.273Z,14.90
2023-05-22T22:32:41.537Z,14.80
2023-05-22T22:37:43.993Z,14.90
2023-05-22T22:42:46.129Z,15.00
2023-05-22T22:47:48.504Z,15.00
2023-05-22T22:52:51.227Z,14.90
2023-05-22T22:57:53.512Z,14.80
2023-05-22T23:02:55.729Z,14.80
2023-05-22T23:08:02.035Z,14.80
2023-05-22T23:13:04.457Z,14.70
2023-05-22T23:18:06.775Z,14.60
2023-05-22T23:23:08.936Z,14.50
2023-05-22T23:28:11.114Z,14.40
2023-05-22T23:33:13.297Z,14.20
2023-05-22T23:38:15.503Z,14.20
2023-05-22T23:43:20.579Z,14.10
2023-05-22T23:48:22.959Z,14.00
2023-05-22T23:53:25.181Z,14.00
2023-05-22T23:58:29.580Z,14.00
